sensor_id;sensor_type;location;lat;lon;timestamp;temperature;humidity
21928;DHT22;11128;51.096;17.190;2022-07-23T00:01:08;20.10;1.00
21928;DHT22;11128;51.096;17.190;2022-07-23T00:06:10;19.90;1.00
21928;DHT22;11128;51.096;17.190;2022-07-23T00:11:12;19.90;99.90
21928;DHT22;11128;51.096;17.190;2022-07-23T00:16:14;19.70;99.90
21928;DHT22;11128;51.096;17.190;2022-07-23T00:21:15;19.60;99.90
21928;DHT22;11128;51.096;17.190;2022-07-23T00:26:16;19.60;1.00
21928;DHT22;11128;51.096;17.190;2022-07-23T00:31:18;19.60;99.90
21928;DHT22;11128;51.096;17.190;2022-07-23T00:36:19;19.50;1.00
21928;DHT22;11128;51.096;17.190;2022-07-23T00:41:21;19.40;1.00
21928;DHT22;11128;51.096;17.190;2022-07-23T00:46:23;19.50;1.00
21928;DHT22;11128;51.096;17.190;2022-07-23T00:51:26;19.40;1.00
21928;DHT22;11128;51.096;17.190;2022-07-23T00:56:28;19.30;1.00
21928;DHT22;11128;51.096;17.190;2022-07-23T01:01:30;19.40;1.00
21928;DHT22;11128;51.096;17.190;2022-07-23T01:06:36;19.20;99.90
21928;DHT22;11128;51.096;17.190;2022-07-23T01:11:39;19.30;1.00
21928;DHT22;11128;51.096;17.190;2022-07-23T01:16:45;19.30;99.90
21928;DHT22;11128;51.096;17.190;2022-07-23T01:21:50;19.20;99.90
21928;DHT22;11128;51.096;17.190;2022-07-23T01:26:51;19.10;99.90
21928;DHT22;11128;51.096;17.190;2022-07-23T01:31:54;18.90;99.90
21928;DHT22;11128;51.096;17.190;2022-07-23T01:36:55;18.90;1.00
21928;DHT22;11128;51.096;17.190;2022-07-23T01:41:58;19.00;99.90
21928;DHT22;11128;51.096;17.190;2022-07-23T01:46:59;19.00;1.00
21928;DHT22;11128;51.096;17.190;2022-07-23T01:52:01;19.00;1.00
21928;DHT22;11128;51.096;17.190;2022-07-23T01:57:02;18.80;87.90
21928;DHT22;11128;51.096;17.190;2022-07-23T02:02:04;18.70;99.90
21928;DHT22;11128;51.096;17.190;2022-07-23T02:07:06;18.60;1.00
21928;DHT22;11128;51.096;17.190;2022-07-23T02:12:08;18.50;1.00
21928;DHT22;11128;51.096;17.190;2022-07-23T02:17:09;18.60;99.90
21928;DHT22;11128;51.096;17.190;2022-07-23T02:22:11;18.50;1.00
21928;DHT22;11128;51.096;17.190;2022-07-23T02:27:12;18.60;1.00
21928;DHT22;11128;51.096;17.190;2022-07-23T02:32:14;18.60;1.00
21928;DHT22;11128;51.096;17.190;2022-07-23T02:37:15;18.60;1.00
21928;DHT22;11128;51.096;17.190;2022-07-23T02:42:17;18.60;99.90
21928;DHT22;11128;51.096;17.190;2022-07-23T02:47:18;18.50;99.90
21928;DHT22;11128;51.096;17.190;2022-07-23T02:52:20;18.50;99.90
21928;DHT22;11128;51.096;17.190;2022-07-23T02:57:21;18.50;99.90
21928;DHT22;11128;51.096;17.190;2022-07-23T03:02:22;18.50;99.90
21928;DHT22;11128;51.096;17.190;2022-07-23T03:07:24;18.50;99.90
21928;DHT22;11128;51.096;17.190;2022-07-23T03:12:25;18.50;99.90
21928;DHT22;11128;51.096;17.190;2022-07-23T03:17:27;18.40;99.90
21928;DHT22;11128;51.096;17.190;2022-07-23T03:22:28;18.50;1.00
21928;DHT22;11128;51.096;17.190;2022-07-23T03:27:30;18.40;99.90
21928;DHT22;11128;51.096;17.190;2022-07-23T03:32:32;18.50;99.90
21928;DHT22;11128;51.096;17.190;2022-07-23T03:37:33;18.50;99.90
21928;DHT22;11128;51.096;17.190;2022-07-23T03:42:35;18.50;7.10
21928;DHT22;11128;51.096;17.190;2022-07-23T03:47:38;18.60;1.00
21928;DHT22;11128;51.096;17.190;2022-07-23T03:52:40;18.80;99.90
21928;DHT22;11128;51.096;17.190;2022-07-23T03:57:42;18.80;1.00
21928;DHT22;11128;51.096;17.190;2022-07-23T04:02:43;18.90;1.00
21928;DHT22;11128;51.096;17.190;2022-07-23T04:07:45;19.00;1.00
21928;DHT22;11128;51.096;17.190;2022-07-23T04:12:46;19.30;99.90
21928;DHT22;11128;51.096;17.190;2022-07-23T04:17:48;19.40;99.90
21928;DHT22;11128;51.096;17.190;2022-07-23T04:22:50;19.60;64.10
21928;DHT22;11128;51.096;17.190;2022-07-23T04:27:51;19.60;1.00
21928;DHT22;11128;51.096;17.190;2022-07-23T04:32:54;19.80;99.90
21928;DHT22;11128;51.096;17.190;2022-07-23T04:37:56;19.90;99.90
21928;DHT22;11128;51.096;17.190;2022-07-23T04:42:58;20.00;1.00
21928;DHT22;11128;51.096;17.190;2022-07-23T04:47:59;20.10;17.90
21928;DHT22;11128;51.096;17.190;2022-07-23T04:53:00;20.30;1.00
21928;DHT22;11128;51.096;17.190;2022-07-23T04:58:02;20.50;99.90
21928;DHT22;11128;51.096;17.190;2022-07-23T05:03:05;20.70;1.00
21928;DHT22;11128;51.096;17.190;2022-07-23T05:08:06;20.90;1.00
21928;DHT22;11128;51.096;17.190;2022-07-23T05:13:07;21.10;99.90
21928;DHT22;11128;51.096;17.190;2022-07-23T05:18:10;21.30;1.00
21928;DHT22;11128;51.096;17.190;2022-07-23T05:23:12;21.40;1.00
21928;DHT22;11128;51.096;17.190;2022-07-23T05:28:13;21.50;1.00
21928;DHT22;11128;51.096;17.190;2022-07-23T05:33:14;21.70;99.90
21928;DHT22;11128;51.096;17.190;2022-07-23T05:38:16;21.80;1.00
21928;DHT22;11128;51.096;17.190;2022-07-23T05:43:18;22.00;99.90
21928;DHT22;11128;51.096;17.190;2022-07-23T05:48:20;22.10;99.90
21928;DHT22;11128;51.096;17.190;2022-07-23T05:53:21;22.20;99.90
21928;DHT22;11128;51.096;17.190;2022-07-23T05:58:23;22.40;69.60
21928;DHT22;11128;51.096;17.190;2022-07-23T06:03:24;22.50;13.40
21928;DHT22;11128;51.096;17.190;2022-07-23T06:08:26;22.60;1.00
21928;DHT22;11128;51.096;17.190;2022-07-23T06:13:27;22.80;99.90
21928;DHT22;11128;51.096;17.190;2022-07-23T06:18:28;22.90;1.00
21928;DHT22;11128;51.096;17.190;2022-07-23T06:23:30;23.10;99.90
21928;DHT22;11128;51.096;17.190;2022-07-23T06:28:32;23.30;99.90
21928;DHT22;11128;51.096;17.190;2022-07-23T06:33:33;23.40;1.00
21928;DHT22;11128;51.096;17.190;2022-07-23T06:38:35;23.40;99.90
21928;DHT22;11128;51.096;17.190;2022-07-23T06:43:36;23.40;99.90
21928;DHT22;11128;51.096;17.190;2022-07-23T06:48:38;23.50;99.90
21928;DHT22;11128;51.096;17.190;2022-07-23T06:53:40;23.60;99.90
21928;DHT22;11128;51.096;17.190;2022-07-23T06:58:42;23.80;64.30
21928;DHT22;11128;51.096;17.190;2022-07-23T07:03:44;24.00;1.00
21928;DHT22;11128;51.096;17.190;2022-07-23T07:08:45;24.30;1.00
21928;DHT22;11128;51.096;17.190;2022-07-23T07:13:48;24.60;1.00
21928;DHT22;11128;51.096;17.190;2022-07-23T07:18:49;24.80;1.00
21928;DHT22;11128;51.096;17.190;2022-07-23T07:23:51;24.90;1.00
21928;DHT22;11128;51.096;17.190;2022-07-23T07:28:53;25.20;1.00
21928;DHT22;11128;51.096;17.190;2022-07-23T07:33:56;25.50;1.00
21928;DHT22;11128;51.096;17.190;2022-07-23T07:38:58;26.10;1.00
21928;DHT22;11128;51.096;17.190;2022-07-23T07:44:00;26.30;99.90
21928;DHT22;11128;51.096;17.190;2022-07-23T07:49:02;26.50;99.90
21928;DHT22;11128;51.096;17.190;2022-07-23T07:54:05;26.40;99.90
21928;DHT22;11128;51.096;17.190;2022-07-23T07:59:07;26.60;99.90
21928;DHT22;11128;51.096;17.190;2022-07-23T08:04:08;26.70;99.90
21928;DHT22;11128;51.096;17.190;2022-07-23T08:09:10;26.70;99.90
21928;DHT22;11128;51.096;17.190;2022-07-23T08:14:12;26.60;99.90
21928;DHT22;11128;51.096;17.190;2022-07-23T08:19:14;26.70;99.90
21928;DHT22;11128;51.096;17.190;2022-07-23T08:24:15;26.70;99.90
21928;DHT22;11128;51.096;17.190;2022-07-23T08:29:17;26.70;99.90
21928;DHT22;11128;51.096;17.190;2022-07-23T08:34:19;26.80;99.90
21928;DHT22;11128;51.096;17.190;2022-07-23T08:39:21;27.20;99.90
21928;DHT22;11128;51.096;17.190;2022-07-23T08:44:22;27.80;99.90
21928;DHT22;11128;51.096;17.190;2022-07-23T08:49:24;28.00;47.30
21928;DHT22;11128;51.096;17.190;2022-07-23T08:54:26;28.30;37.00
21928;DHT22;11128;51.096;17.190;2022-07-23T08:59:29;28.90;8.10
21928;DHT22;11128;51.096;17.190;2022-07-23T09:04:31;29.10;1.00
21928;DHT22;11128;51.096;17.190;2022-07-23T09:09:33;29.10;1.00
21928;DHT22;11128;51.096;17.190;2022-07-23T09:14:43;28.90;1.00
21928;DHT22;11128;51.096;17.190;2022-07-23T09:19:45;29.20;1.00
21928;DHT22;11128;51.096;17.190;2022-07-23T09:30:09;30.10;1.00
21928;DHT22;11128;51.096;17.190;2022-07-23T09:35:11;30.60;1.00
21928;DHT22;11128;51.096;17.190;2022-07-23T09:40:14;30.90;1.00
21928;DHT22;11128;51.096;17.190;2022-07-23T09:45:18;30.90;1.00
21928;DHT22;11128;51.096;17.190;2022-07-23T09:50:20;30.70;1.00
21928;DHT22;11128;51.096;17.190;2022-07-23T09:55:32;30.60;1.00
21928;DHT22;11128;51.096;17.190;2022-07-23T10:00:40;30.70;1.00
21928;DHT22;11128;51.096;17.190;2022-07-23T10:05:44;30.60;1.00
21928;DHT22;11128;51.096;17.190;2022-07-23T10:10:50;30.50;1.00
21928;DHT22;11128;51.096;17.190;2022-07-23T10:15:52;29.90;1.00
21928;DHT22;11128;51.096;17.190;2022-07-23T10:20:55;29.20;1.00
21928;DHT22;11128;51.096;17.190;2022-07-23T10:26:38;28.50;1.00
21928;DHT22;11128;51.096;17.190;2022-07-23T10:36:59;27.70;34.40
21928;DHT22;11128;51.096;17.190;2022-07-23T10:42:13;27.40;99.90
21928;DHT22;11128;51.096;17.190;2022-07-23T10:47:28;27.10;99.90
21928;DHT22;11128;51.096;17.190;2022-07-23T10:58:08;26.30;1.00
21928;DHT22;11128;51.096;17.190;2022-07-23T11:03:30;26.00;1.00
21928;DHT22;11128;51.096;17.190;2022-07-23T11:14:12;24.90;99.90
21928;DHT22;11128;51.096;17.190;2022-07-23T11:19:14;24.30;1.00
21928;DHT22;11128;51.096;17.190;2022-07-23T11:24:18;23.90;1.00
21928;DHT22;11128;51.096;17.190;2022-07-23T11:39:40;23.40;1.00
21928;DHT22;11128;51.096;17.190;2022-07-23T11:44:46;23.50;1.00
21928;DHT22;11128;51.096;17.190;2022-07-23T11:49:53;23.40;99.90
21928;DHT22;11128;51.096;17.190;2022-07-23T11:54:59;23.30;1.00
21928;DHT22;11128;51.096;17.190;2022-07-23T12:00:09;23.30;1.00
21928;DHT22;11128;51.096;17.190;2022-07-23T12:05:15;23.30;1.00
21928;DHT22;11128;51.096;17.190;2022-07-23T12:10:18;23.40;1.00
21928;DHT22;11128;51.096;17.190;2022-07-23T12:15:47;23.40;1.00
21928;DHT22;11128;51.096;17.190;2022-07-23T12:20:51;23.50;1.00
21928;DHT22;11128;51.096;17.190;2022-07-23T12:25:54;23.40;1.00
21928;DHT22;11128;51.096;17.190;2022-07-23T12:30:57;23.40;1.00
21928;DHT22;11128;51.096;17.190;2022-07-23T12:36:04;23.60;1.00
21928;DHT22;11128;51.096;17.190;2022-07-23T12:41:08;23.70;1.00
21928;DHT22;11128;51.096;17.190;2022-07-23T12:46:18;23.70;99.90
21928;DHT22;11128;51.096;17.190;2022-07-23T12:51:22;24.00;27.70
21928;DHT22;11128;51.096;17.190;2022-07-23T12:56:29;25.00;1.00
21928;DHT22;11128;51.096;17.190;2022-07-23T13:01:33;26.20;99.90
21928;DHT22;11128;51.096;17.190;2022-07-23T13:11:41;28.50;99.90
21928;DHT22;11128;51.096;17.190;2022-07-23T13:16:44;29.50;1.00
21928;DHT22;11128;51.096;17.190;2022-07-23T13:21:46;29.60;99.90
21928;DHT22;11128;51.096;17.190;2022-07-23T13:26:47;30.70;99.90
21928;DHT22;11128;51.096;17.190;2022-07-23T13:31:51;31.30;99.90
21928;DHT22;11128;51.096;17.190;2022-07-23T13:36:53;31.40;99.90
21928;DHT22;11128;51.096;17.190;2022-07-23T13:41:56;31.40;99.90
21928;DHT22;11128;51.096;17.190;2022-07-23T13:46:58;31.10;99.90
21928;DHT22;11128;51.096;17.190;2022-07-23T13:51:59;30.50;99.90
21928;DHT22;11128;51.096;17.190;2022-07-23T13:57:01;29.90;99.90
21928;DHT22;11128;51.096;17.190;2022-07-23T14:02:04;29.70;1.00
21928;DHT22;11128;51.096;17.190;2022-07-23T14:07:07;29.40;99.90
21928;DHT22;11128;51.096;17.190;2022-07-23T14:12:09;29.50;99.90
21928;DHT22;11128;51.096;17.190;2022-07-23T14:17:10;30.00;99.90
21928;DHT22;11128;51.096;17.190;2022-07-23T14:22:12;30.10;99.90
21928;DHT22;11128;51.096;17.190;2022-07-23T14:27:13;30.10;1.00
21928;DHT22;11128;51.096;17.190;2022-07-23T14:32:15;29.70;99.90
21928;DHT22;11128;51.096;17.190;2022-07-23T14:37:17;29.30;1.00
21928;DHT22;11128;51.096;17.190;2022-07-23T14:42:20;28.90;1.00
21928;DHT22;11128;51.096;17.190;2022-07-23T14:47:23;28.60;1.00
21928;DHT22;11128;51.096;17.190;2022-07-23T14:52:25;28.30;99.90
21928;DHT22;11128;51.096;17.190;2022-07-23T14:57:26;28.00;99.90
21928;DHT22;11128;51.096;17.190;2022-07-23T15:02:28;27.60;1.00
21928;DHT22;11128;51.096;17.190;2022-07-23T15:07:29;27.30;1.00
21928;DHT22;11128;51.096;17.190;2022-07-23T15:12:31;27.00;1.00
21928;DHT22;11128;51.096;17.190;2022-07-23T15:17:34;26.80;1.00
21928;DHT22;11128;51.096;17.190;2022-07-23T15:22:35;26.60;1.00
21928;DHT22;11128;51.096;17.190;2022-07-23T15:27:37;26.50;1.00
21928;DHT22;11128;51.096;17.190;2022-07-23T15:32:39;26.40;1.00
21928;DHT22;11128;51.096;17.190;2022-07-23T15:37:41;26.30;99.90
21928;DHT22;11128;51.096;17.190;2022-07-23T15:42:43;26.40;1.00
21928;DHT22;11128;51.096;17.190;2022-07-23T15:47:47;26.50;34.60
21928;DHT22;11128;51.096;17.190;2022-07-23T15:52:49;26.50;1.00
21928;DHT22;11128;51.096;17.190;2022-07-23T15:57:51;26.50;1.00
21928;DHT22;11128;51.096;17.190;2022-07-23T16:02:53;26.50;1.00
21928;DHT22;11128;51.096;17.190;2022-07-23T16:07:54;26.50;1.00
21928;DHT22;11128;51.096;17.190;2022-07-23T16:12:58;26.30;1.00
21928;DHT22;11128;51.096;17.190;2022-07-23T16:18:01;26.20;99.90
21928;DHT22;11128;51.096;17.190;2022-07-23T16:23:04;25.90;1.00
21928;DHT22;11128;51.096;17.190;2022-07-23T16:28:07;25.80;1.00
21928;DHT22;11128;51.096;17.190;2022-07-23T16:33:08;25.60;1.00
21928;DHT22;11128;51.096;17.190;2022-07-23T16:38:10;25.60;1.00
21928;DHT22;11128;51.096;17.190;2022-07-23T16:43:12;25.60;1.00
21928;DHT22;11128;51.096;17.190;2022-07-23T16:48:13;25.60;1.00
21928;DHT22;11128;51.096;17.190;2022-07-23T16:53:17;25.70;1.00
21928;DHT22;11128;51.096;17.190;2022-07-23T16:58:20;25.70;1.00
21928;DHT22;11128;51.096;17.190;2022-07-23T17:03:22;25.80;99.90
21928;DHT22;11128;51.096;17.190;2022-07-23T17:08:26;25.80;41.70
21928;DHT22;11128;51.096;17.190;2022-07-23T17:13:28;25.80;1.00
21928;DHT22;11128;51.096;17.190;2022-07-23T17:18:30;25.80;1.00
21928;DHT22;11128;51.096;17.190;2022-07-23T17:23:32;25.70;99.90
21928;DHT22;11128;51.096;17.190;2022-07-23T17:28:33;25.70;99.90
21928;DHT22;11128;51.096;17.190;2022-07-23T17:33:35;25.70;99.90
21928;DHT22;11128;51.096;17.190;2022-07-23T17:38:38;25.60;99.90
21928;DHT22;11128;51.096;17.190;2022-07-23T17:43:40;25.40;1.00
21928;DHT22;11128;51.096;17.190;2022-07-23T17:48:42;25.20;1.00
21928;DHT22;11128;51.096;17.190;2022-07-23T17:53:43;25.10;99.90
21928;DHT22;11128;51.096;17.190;2022-07-23T17:58:45;24.80;1.00
21928;DHT22;11128;51.096;17.190;2022-07-23T18:03:46;24.60;99.90
21928;DHT22;11128;51.096;17.190;2022-07-23T18:08:52;24.60;1.00
21928;DHT22;11128;51.096;17.190;2022-07-23T18:13:53;24.50;1.00
21928;DHT22;11128;51.096;17.190;2022-07-23T18:18:55;24.30;99.90
21928;DHT22;11128;51.096;17.190;2022-07-23T18:23:57;24.20;1.00
21928;DHT22;11128;51.096;17.190;2022-07-23T18:28:59;24.10;1.00
21928;DHT22;11128;51.096;17.190;2022-07-23T18:34:01;24.00;99.90
21928;DHT22;11128;51.096;17.190;2022-07-23T18:39:03;23.90;99.90
21928;DHT22;11128;51.096;17.190;2022-07-23T18:44:04;23.90;87.90
21928;DHT22;11128;51.096;17.190;2022-07-23T18:49:07;23.70;1.00
21928;DHT22;11128;51.096;17.190;2022-07-23T18:54:08;23.60;1.00
21928;DHT22;11128;51.096;17.190;2022-07-23T18:59:11;23.50;1.00
21928;DHT22;11128;51.096;17.190;2022-07-23T19:04:15;23.40;1.00
21928;DHT22;11128;51.096;17.190;2022-07-23T19:09:17;23.30;1.00
21928;DHT22;11128;51.096;17.190;2022-07-23T19:14:19;23.10;99.90
21928;DHT22;11128;51.096;17.190;2022-07-23T19:19:22;23.00;99.90
21928;DHT22;11128;51.096;17.190;2022-07-23T19:24:24;23.00;1.00
21928;DHT22;11128;51.096;17.190;2022-07-23T19:29:26;22.90;99.90
21928;DHT22;11128;51.096;17.190;2022-07-23T19:34:28;22.80;1.00
21928;DHT22;11128;51.096;17.190;2022-07-23T19:39:30;22.70;1.00
21928;DHT22;11128;51.096;17.190;2022-07-23T19:44:32;22.50;1.00
21928;DHT22;11128;51.096;17.190;2022-07-23T19:49:33;22.40;99.90
21928;DHT22;11128;51.096;17.190;2022-07-23T19:54:36;22.30;1.00
21928;DHT22;11128;51.096;17.190;2022-07-23T19:59:38;22.20;99.90
21928;DHT22;11128;51.096;17.190;2022-07-23T20:04:40;22.10;1.00
21928;DHT22;11128;51.096;17.190;2022-07-23T20:09:43;22.00;1.00
21928;DHT22;11128;51.096;17.190;2022-07-23T20:14:45;21.90;99.90
21928;DHT22;11128;51.096;17.190;2022-07-23T20:19:48;21.80;1.00
21928;DHT22;11128;51.096;17.190;2022-07-23T20:24:50;21.70;13.10
21928;DHT22;11128;51.096;17.190;2022-07-23T20:29:52;21.60;1.00
21928;DHT22;11128;51.096;17.190;2022-07-23T20:34:54;21.60;1.00
21928;DHT22;11128;51.096;17.190;2022-07-23T20:39:57;21.50;16.50
21928;DHT22;11128;51.096;17.190;2022-07-23T20:44:59;21.50;99.90
21928;DHT22;11128;51.096;17.190;2022-07-23T20:50:04;21.40;99.90
21928;DHT22;11128;51.096;17.190;2022-07-23T20:55:06;21.30;1.00
21928;DHT22;11128;51.096;17.190;2022-07-23T21:00:10;21.20;99.90
21928;DHT22;11128;51.096;17.190;2022-07-23T21:05:13;21.10;99.90
21928;DHT22;11128;51.096;17.190;2022-07-23T21:10:15;21.00;99.90
21928;DHT22;11128;51.096;17.190;2022-07-23T21:15:17;20.90;99.90
21928;DHT22;11128;51.096;17.190;2022-07-23T21:20:19;21.00;99.90
21928;DHT22;11128;51.096;17.190;2022-07-23T21:25:21;20.90;99.90
21928;DHT22;11128;51.096;17.190;2022-07-23T21:30:23;21.00;99.90
21928;DHT22;11128;51.096;17.190;2022-07-23T21:35:25;21.00;99.90
21928;DHT22;11128;51.096;17.190;2022-07-23T21:40:27;20.80;99.90
21928;DHT22;11128;51.096;17.190;2022-07-23T21:45:29;20.70;19.80
21928;DHT22;11128;51.096;17.190;2022-07-23T21:50:31;20.70;99.90
21928;DHT22;11128;51.096;17.190;2022-07-23T21:55:35;20.60;1.00
21928;DHT22;11128;51.096;17.190;2022-07-23T22:00:36;20.50;99.90
21928;DHT22;11128;51.096;17.190;2022-07-23T22:05:39;20.40;99.90
21928;DHT22;11128;51.096;17.190;2022-07-23T22:10:41;20.30;99.90
21928;DHT22;11128;51.096;17.190;2022-07-23T22:15:42;20.30;97.70
21928;DHT22;11128;51.096;17.190;2022-07-23T22:20:44;20.20;99.90
21928;DHT22;11128;51.096;17.190;2022-07-23T22:25:46;20.10;99.90
21928;DHT22;11128;51.096;17.190;2022-07-23T22:30:47;19.90;1.00
21928;DHT22;11128;51.096;17.190;2022-07-23T22:35:50;19.80;99.90
21928;DHT22;11128;51.096;17.190;2022-07-23T22:40:52;19.70;99.90
21928;DHT22;11128;51.096;17.190;2022-07-23T22:45:54;19.60;1.00
21928;DHT22;11128;51.096;17.190;2022-07-23T22:50:55;19.50;99.90
21928;DHT22;11128;51.096;17.190;2022-07-23T22:55:57;19.30;1.00
21928;DHT22;11128;51.096;17.190;2022-07-23T23:00:58;19.20;1.00
21928;DHT22;11128;51.096;17.190;2022-07-23T23:05:59;19.20;1.00
21928;DHT22;11128;51.096;17.190;2022-07-23T23:11:01;19.20;1.00
21928;DHT22;11128;51.096;17.190;2022-07-23T23:16:03;19.10;1.00
21928;DHT22;11128;51.096;17.190;2022-07-23T23:21:04;19.00;1.00
21928;DHT22;11128;51.096;17.190;2022-07-23T23:26:06;18.80;1.00
21928;DHT22;11128;51.096;17.190;2022-07-23T23:31:07;18.70;1.00
21928;DHT22;11128;51.096;17.190;2022-07-23T23:36:08;18.60;1.00
21928;DHT22;11128;51.096;17.190;2022-07-23T23:41:10;18.50;1.00
21928;DHT22;11128;51.096;17.190;2022-07-23T23:46:12;18.30;99.90
21928;DHT22;11128;51.096;17.190;2022-07-23T23:51:13;18.20;1.00
21928;DHT22;11128;51.096;17.190;2022-07-23T23:56:15;18.20;1.00
